עמוד ראשי
METAR-TAF:

METAR-TAF

שדות תעופה :

Lavan Island, איראן

קו רוחב: 26-48-37N, קו אורך: 53-21-22E, גובה: 23מטר

תצפית מזג אוויר נוכחית

הדו"ח נערך לפני 5 שעות ו 49דקות, בשעה 15:00 UTC
רוח 14קשר מכיוון מערב/צפון-מערב
טמפרטורת 36 צלסיוס
לחות 53%
לחץ 997 hPa
ראות 10 קילומטר או יותר
ללא עננים שבסיסם נמוך מ 5000 רגל או קומולונימבוס

METAR: OIBV 131500Z 30014KT CAVOK 36/25 Q0997

זמן: 01:19 (20:49 UTC)


TAF: חסר

תצפיות ותחזיות מזג אוויר לגבי יותר מ- 4,000 שדות תעופה ברחבי העולם. דוחות METAR ו- TAF.

התחנות הזמינות מסומנות בנקודות צהובות ואדומות על גבי המפה.

העבר את העכבר לנקודה הצבעונית על מנת לראות את שם התחנה.

לאחר מכן, לחץ כדי לראות את תוכן ואת תחזיות מזג האוויר.

כדי לשנות את המפה: לחץ על הכפתורים הירוקים עם הפלוס השחור כדי להתקרב; על הכפתור הירוק עם המקף כדי להתרחק; או בחיצים הירוקים למפות סמוכות.


METAR-TAF: